createdAt,value
2023-02-13T00:02:04.646Z,8.90
2023-02-13T00:05:46.669Z,8.90
2023-02-13T00:09:28.429Z,9.00
2023-02-13T00:13:10.240Z,9.00
2023-02-13T00:16:52.004Z,9.00
2023-02-13T00:20:33.806Z,9.00
2023-02-13T00:24:16.292Z,8.90
2023-02-13T00:27:58.099Z,8.90
2023-02-13T00:31:39.983Z,8.90
2023-02-13T00:35:21.890Z,9.00
2023-02-13T00:39:03.896Z,9.00
2023-02-13T00:42:45.695Z,9.00
2023-02-13T00:46:27.554Z,9.00
2023-02-13T00:50:09.720Z,8.90
2023-02-13T00:53:51.506Z,8.90
2023-02-13T00:57:33.365Z,8.90
2023-02-13T01:01:15.472Z,8.90
2023-02-13T01:04:57.354Z,8.90
2023-02-13T01:08:40.169Z,8.80
2023-02-13T01:12:22.085Z,8.80
2023-02-13T01:16:04.023Z,8.80
2023-02-13T01:19:45.853Z,8.80
2023-02-13T01:23:33.261Z,8.80
2023-02-13T01:27:17.055Z,8.80
2023-02-13T01:31:00.042Z,8.80
2023-02-13T01:34:42.178Z,8.80
2023-02-13T01:38:23.995Z,8.80
2023-02-13T01:42:06.530Z,8.80
2023-02-13T01:45:51.773Z,8.80
2023-02-13T01:49:33.622Z,8.80
2023-02-13T01:53:20.582Z,8.80
2023-02-13T01:57:13.090Z,8.80
2023-02-13T02:00:55.188Z,8.80
2023-02-13T02:04:40.084Z,8.80
2023-02-13T02:08:23.611Z,8.80
2023-02-13T02:12:08.189Z,8.80
2023-02-13T02:15:50.701Z,8.80
2023-02-13T02:19:42.839Z,8.80
2023-02-13T02:24:01.949Z,8.80
2023-02-13T02:27:43.714Z,8.80
2023-02-13T02:31:59.483Z,8.80
2023-02-13T02:36:08.049Z,8.80
2023-02-13T02:40:11.529Z,8.70
2023-02-13T02:44:18.022Z,8.70
2023-02-13T02:48:33.650Z,8.70
2023-02-13T02:52:20.357Z,8.70
2023-02-13T02:56:23.498Z,8.70
2023-02-13T03:00:24.377Z,8.70
2023-02-13T03:04:25.518Z,8.60
2023-02-13T03:08:07.849Z,8.60
2023-02-13T03:12:11.589Z,8.60
2023-02-13T03:16:18.131Z,8.60
2023-02-13T03:20:39.801Z,8.60
2023-02-13T03:24:58.976Z,8.60
2023-02-13T03:29:09.141Z,8.60
2023-02-13T03:32:59.738Z,8.50
2023-02-13T03:37:19.728Z,8.50
2023-02-13T03:41:18.568Z,8.60
2023-02-13T03:45:34.351Z,8.60
2023-02-13T03:49:45.396Z,8.60
2023-02-13T03:53:31.556Z,8.60
2023-02-13T03:57:36.766Z,8.60
2023-02-13T04:01:21.958Z,8.60
2023-02-13T04:05:17.503Z,8.50
2023-02-13T04:08:59.403Z,8.60
2023-02-13T04:12:57.729Z,8.50
2023-02-13T04:16:48.174Z,8.50
2023-02-13T04:20:32.093Z,8.50
2023-02-13T04:24:13.907Z,8.50
2023-02-13T04:27:55.704Z,8.50
2023-02-13T04:31:37.696Z,8.50
2023-02-13T04:35:19.598Z,8.50
2023-02-13T04:39:01.403Z,8.50
2023-02-13T04:42:43.227Z,8.50
2023-02-13T04:46:25.188Z,8.50
2023-02-13T04:50:07.506Z,8.50
2023-02-13T04:53:49.302Z,8.50
2023-02-13T04:57:31.182Z,8.50
2023-02-13T05:01:15.614Z,8.50
2023-02-13T05:04:57.647Z,8.50
2023-02-13T05:08:39.720Z,8.40
2023-02-13T05:12:21.586Z,8.30
2023-02-13T05:16:03.605Z,8.30
2023-02-13T05:19:45.473Z,8.30
2023-02-13T05:23:27.265Z,8.20
2023-02-13T05:27:09.153Z,8.20
2023-02-13T05:30:50.979Z,8.20
2023-02-13T05:34:32.805Z,8.30
2023-02-13T05:38:14.599Z,8.20
2023-02-13T05:41:56.492Z,8.20
2023-02-13T05:45:38.273Z,8.20
2023-02-13T05:49:20.094Z,8.20
2023-02-13T05:53:01.997Z,8.20
2023-02-13T05:56:43.888Z,8.20
2023-02-13T06:00:25.759Z,8.20
2023-02-13T06:04:07.679Z,8.20
2023-02-13T06:07:49.494Z,8.20
2023-02-13T06:11:31.337Z,8.20
2023-02-13T06:15:13.128Z,8.10
2023-02-13T06:18:54.941Z,8.10
2023-02-13T06:22:36.736Z,8.20
2023-02-13T06:26:18.958Z,8.10
2023-02-13T06:30:00.844Z,8.20
2023-02-13T06:33:42.647Z,8.10
2023-02-13T06:37:24.467Z,8.10
2023-02-13T06:41:07.067Z,8.10
2023-02-13T06:44:48.904Z,8.10
2023-02-13T06:48:30.709Z,8.10
2023-02-13T06:52:12.478Z,8.10
2023-02-13T06:55:55.873Z,8.00
2023-02-13T06:59:37.658Z,7.90
2023-02-13T07:03:19.613Z,7.90
2023-02-13T07:07:01.447Z,7.90
2023-02-13T07:10:43.578Z,7.90
2023-02-13T07:14:25.362Z,7.90
2023-02-13T07:18:07.448Z,7.90
2023-02-13T07:21:49.346Z,7.90
2023-02-13T07:25:31.806Z,7.90
2023-02-13T07:29:13.598Z,7.90
2023-02-13T07:33:02.471Z,7.90
2023-02-13T07:36:44.280Z,8.00
2023-02-13T07:40:26.268Z,8.00
2023-02-13T07:44:08.089Z,8.00
2023-02-13T07:47:49.878Z,8.00
2023-02-13T07:51:31.636Z,8.00
2023-02-13T07:55:13.430Z,7.90
2023-02-13T07:58:55.608Z,8.00
2023-02-13T08:02:37.405Z,7.90
2023-02-13T08:06:20.366Z,7.90
2023-02-13T08:10:20.893Z,7.90
2023-02-13T08:14:02.689Z,7.90
2023-02-13T08:17:44.632Z,7.90
2023-02-13T08:21:26.455Z,8.00
2023-02-13T08:25:08.770Z,8.00
2023-02-13T08:28:50.564Z,8.00
2023-02-13T08:32:41.919Z,8.00
2023-02-13T08:36:33.903Z,8.10
2023-02-13T08:40:15.835Z,8.10
2023-02-13T08:43:57.650Z,8.20
2023-02-13T08:47:40.039Z,8.20
2023-02-13T08:51:21.991Z,8.20
2023-02-13T08:55:03.971Z,8.20
2023-02-13T08:58:49.781Z,8.30
2023-02-13T09:02:31.708Z,8.30
2023-02-13T09:06:13.671Z,8.40
2023-02-13T09:09:55.478Z,8.40
2023-02-13T09:13:37.709Z,8.50
2023-02-13T09:17:19.802Z,8.50
2023-02-13T09:21:12.704Z,8.60
2023-02-13T09:24:55.728Z,8.60
2023-02-13T09:28:38.416Z,8.70
2023-02-13T09:32:20.319Z,8.80
2023-02-13T09:36:10.306Z,8.90
2023-02-13T09:39:52.090Z,9.00
2023-02-13T09:44:34.069Z,9.40
2023-02-13T09:48:29.676Z,10.10
2023-02-13T09:52:11.648Z,10.40
2023-02-13T09:56:14.561Z,10.70
2023-02-13T10:00:13.370Z,11.10
2023-02-13T10:04:19.489Z,11.30
2023-02-13T10:08:07.041Z,11.70
2023-02-13T10:12:22.918Z,12.30
2023-02-13T10:16:30.480Z,12.30
2023-02-13T10:20:32.473Z,12.30
2023-02-13T10:24:31.567Z,12.50
2023-02-13T10:28:28.905Z,12.40
2023-02-13T10:32:17.610Z,12.50
2023-02-13T10:36:26.945Z,12.60
2023-02-13T10:40:12.001Z,13.00
2023-02-13T10:44:14.026Z,13.70
2023-02-13T10:48:06.408Z,14.40
2023-02-13T10:52:16.660Z,14.90
2023-02-13T10:56:19.967Z,15.30
2023-02-13T11:00:24.398Z,15.90
2023-02-13T11:04:13.541Z,16.40
2023-02-13T11:07:55.500Z,16.40
2023-02-13T11:11:43.923Z,16.70
2023-02-13T11:15:31.657Z,17.30
2023-02-13T11:19:34.462Z,18.00
2023-02-13T11:23:28.014Z,18.80
2023-02-13T11:27:13.874Z,19.20
2023-02-13T11:31:11.818Z,19.60
2023-02-13T11:34:56.924Z,20.20
2023-02-13T11:38:38.796Z,20.50
2023-02-13T11:42:26.315Z,20.80
2023-02-13T11:46:19.657Z,21.10
2023-02-13T11:50:02.284Z,21.00
2023-02-13T11:53:44.114Z,21.40
2023-02-13T11:57:33.155Z,21.60
2023-02-13T12:01:20.671Z,21.90
2023-02-13T12:05:21.075Z,22.20
2023-02-13T12:09:02.885Z,22.30
2023-02-13T12:12:55.382Z,22.60
2023-02-13T12:16:45.524Z,22.90
2023-02-13T12:20:31.113Z,23.30
2023-02-13T12:24:12.904Z,23.60
2023-02-13T12:28:07.873Z,24.00
2023-02-13T12:32:15.168Z,24.10
2023-02-13T12:36:02.914Z,24.30
2023-02-13T12:40:02.916Z,24.20
2023-02-13T12:43:56.486Z,24.30
2023-02-13T12:47:47.974Z,24.60
2023-02-13T12:52:05.658Z,24.90
2023-02-13T12:56:12.117Z,25.00
2023-02-13T13:00:27.260Z,25.20
2023-02-13T13:04:14.993Z,25.50
2023-02-13T13:08:24.363Z,25.60
2023-02-13T13:12:11.992Z,25.70
2023-02-13T13:16:13.883Z,25.50
2023-02-13T13:20:15.973Z,24.90
2023-02-13T13:24:16.085Z,24.10
2023-02-13T13:28:20.964Z,23.40
2023-02-13T13:32:08.156Z,23.00
2023-02-13T13:36:36.706Z,22.80
2023-02-13T13:40:35.764Z,23.10
2023-02-13T13:44:40.100Z,23.20
2023-02-13T13:48:56.106Z,23.40
2023-02-13T13:52:37.952Z,23.70
2023-02-13T13:56:22.857Z,24.30
2023-02-13T14:00:07.765Z,24.30
2023-02-13T14:03:50.802Z,24.30
2023-02-13T14:07:43.883Z,24.50
2023-02-13T14:11:39.615Z,24.60
2023-02-13T14:15:44.666Z,24.60
2023-02-13T14:19:37.743Z,24.80
2023-02-13T14:24:00.657Z,24.10
2023-02-13T14:27:42.550Z,22.70
2023-02-13T14:31:39.484Z,22.20
2023-02-13T14:35:29.502Z,22.70
2023-02-13T14:39:34.355Z,23.40
2023-02-13T14:43:20.446Z,24.00
2023-02-13T14:47:11.355Z,24.30
2023-02-13T14:50:56.834Z,24.30
2023-02-13T14:54:45.680Z,24.30
2023-02-13T14:58:33.760Z,24.30
2023-02-13T15:02:29.648Z,24.30
2023-02-13T15:06:23.354Z,24.40
2023-02-13T15:10:27.296Z,24.30
2023-02-13T15:14:23.092Z,24.10
2023-02-13T15:18:16.884Z,23.30
2023-02-13T15:22:03.602Z,22.70
2023-02-13T15:25:45.371Z,21.90
2023-02-13T15:29:35.230Z,21.00
2023-02-13T15:33:22.289Z,20.30
2023-02-13T15:37:04.161Z,20.10
2023-02-13T15:40:46.033Z,20.30
2023-02-13T15:44:31.274Z,20.40
2023-02-13T15:48:17.435Z,20.10
2023-02-13T15:52:05.026Z,19.40
2023-02-13T15:56:00.734Z,18.60
2023-02-13T15:59:42.944Z,17.90
2023-02-13T16:03:26.702Z,17.50
2023-02-13T16:07:12.440Z,17.20
2023-02-13T16:11:25.091Z,16.90
2023-02-13T16:15:08.633Z,16.60
2023-02-13T16:18:51.239Z,16.60
2023-02-13T16:22:37.618Z,16.90
2023-02-13T16:26:19.641Z,17.20
2023-02-13T16:30:07.554Z,17.50
2023-02-13T16:33:49.838Z,17.90
2023-02-13T16:37:34.239Z,18.00
2023-02-13T16:41:30.920Z,18.00
2023-02-13T16:45:23.859Z,17.50
2023-02-13T16:49:08.576Z,16.80
2023-02-13T16:52:50.465Z,16.20
2023-02-13T16:56:38.435Z,15.80
2023-02-13T17:00:25.476Z,15.40
2023-02-13T17:04:24.917Z,15.20
2023-02-13T17:08:07.961Z,14.90
2023-02-13T17:11:51.651Z,14.80
2023-02-13T17:15:33.554Z,14.50
2023-02-13T17:19:15.421Z,14.40
2023-02-13T17:22:59.888Z,14.20
2023-02-13T17:26:41.685Z,14.00
2023-02-13T17:30:32.039Z,13.90
2023-02-13T17:34:13.831Z,13.70
2023-02-13T17:37:55.805Z,13.60
2023-02-13T17:41:38.353Z,13.40
2023-02-13T17:45:24.618Z,13.30
2023-02-13T17:49:06.479Z,13.20
2023-02-13T17:52:49.140Z,13.00
2023-02-13T17:56:31.598Z,13.00
2023-02-13T18:00:14.918Z,12.80
2023-02-13T18:03:56.773Z,12.70
2023-02-13T18:07:40.897Z,12.60
2023-02-13T18:11:22.810Z,12.50
2023-02-13T18:15:05.412Z,12.40
2023-02-13T18:18:47.203Z,12.20
2023-02-13T18:22:29.290Z,12.10
2023-02-13T18:26:11.133Z,12.00
2023-02-13T18:29:55.246Z,11.90
2023-02-13T18:33:37.319Z,11.80
2023-02-13T18:37:19.251Z,11.70
2023-02-13T18:41:02.118Z,11.60
2023-02-13T18:44:43.902Z,11.50
2023-02-13T18:48:25.711Z,11.40
2023-02-13T18:52:07.558Z,11.20
2023-02-13T18:55:49.441Z,11.10
2023-02-13T18:59:31.209Z,11.00
2023-02-13T19:03:13.014Z,10.80
2023-02-13T19:06:54.861Z,10.70
2023-02-13T19:10:36.741Z,10.60
2023-02-13T19:14:18.614Z,10.50
2023-02-13T19:18:00.435Z,10.40
2023-02-13T19:21:42.275Z,10.20
2023-02-13T19:25:24.075Z,10.20
2023-02-13T19:29:05.864Z,10.20
2023-02-13T19:32:47.663Z,10.20
2023-02-13T19:36:30.313Z,10.10
2023-02-13T19:40:13.568Z,10.00
2023-02-13T19:43:56.447Z,9.90
2023-02-13T19:47:38.412Z,9.80
2023-02-13T19:51:26.154Z,9.70
2023-02-13T19:55:08.081Z,9.60
2023-02-13T19:58:49.862Z,9.50
2023-02-13T20:02:31.678Z,9.40
2023-02-13T20:06:17.222Z,9.40
2023-02-13T20:09:59.316Z,9.30
2023-02-13T20:13:41.772Z,9.20
2023-02-13T20:17:23.608Z,9.20
2023-02-13T20:21:10.400Z,9.10
2023-02-13T20:24:52.184Z,9.10
2023-02-13T20:28:34.186Z,9.00
2023-02-13T20:32:16.414Z,9.00
2023-02-13T20:35:58.258Z,8.90
2023-02-13T20:39:40.067Z,8.90
2023-02-13T20:43:21.898Z,8.80
2023-02-13T20:47:04.086Z,8.80
2023-02-13T20:50:45.879Z,8.70
2023-02-13T20:54:27.725Z,8.70
2023-02-13T20:58:10.030Z,8.60
2023-02-13T21:01:51.875Z,8.60
2023-02-13T21:05:33.634Z,8.50
2023-02-13T21:09:15.898Z,8.40
2023-02-13T21:12:57.688Z,8.40
2023-02-13T21:16:41.180Z,8.30
2023-02-13T21:20:23.052Z,8.30
2023-02-13T21:24:08.400Z,8.20
2023-02-13T21:27:50.413Z,8.20
2023-02-13T21:31:35.119Z,8.10
2023-02-13T21:35:17.065Z,8.00
2023-02-13T21:38:59.683Z,8.00
2023-02-13T21:42:41.474Z,7.80
2023-02-13T21:46:29.215Z,7.80
2023-02-13T21:50:11.812Z,7.70
2023-02-13T21:53:54.786Z,7.60
2023-02-13T21:57:36.619Z,7.50
2023-02-13T22:01:26.408Z,7.40
2023-02-13T22:05:08.825Z,7.40
2023-02-13T22:08:56.195Z,7.40
2023-02-13T22:12:37.891Z,7.30
2023-02-13T22:16:19.812Z,7.30
2023-02-13T22:20:01.625Z,7.30
2023-02-13T22:23:44.910Z,7.20
2023-02-13T22:27:26.680Z,7.20
2023-02-13T22:31:09.582Z,7.10
2023-02-13T22:34:51.431Z,7.10
2023-02-13T22:38:35.122Z,7.00
2023-02-13T22:42:17.309Z,6.90
2023-02-13T22:46:13.803Z,6.80
2023-02-13T22:49:55.665Z,6.80
2023-02-13T22:53:38.187Z,6.70
2023-02-13T22:57:19.968Z,6.60
2023-02-13T23:01:02.315Z,6.60
2023-02-13T23:04:44.257Z,6.50
2023-02-13T23:08:26.084Z,6.40
2023-02-13T23:12:27.050Z,6.40
2023-02-13T23:16:15.613Z,6.40
2023-02-13T23:19:57.527Z,6.30
2023-02-13T23:23:39.444Z,6.20
2023-02-13T23:27:21.323Z,6.10
2023-02-13T23:31:03.669Z,6.10
2023-02-13T23:34:45.758Z,6.00
2023-02-13T23:38:27.824Z,6.00
2023-02-13T23:42:09.635Z,6.00
2023-02-13T23:45:51.481Z,6.00
2023-02-13T23:49:33.314Z,5.90
2023-02-13T23:53:15.123Z,5.80
2023-02-13T23:56:57.286Z,5.80
